Adams, Massachusetts
Current Conditions -  °F | °C
As of 7:52 PM on Monday 20 Oct 2014 (Local Time) from KAQW Reporting Station
Overcast Overcast  
Wind Chill: 49°   Ceiling: 8000
Heat Index: 49°   Visibility: 10mi
Dew Point: 36°   Wind: 0mph
Humidity: 61%   Direction: NA
Pressure: 29.96"   Gusts: NA
Location:  42.62°N, 73.12°W
Report Text: KAQW 202352Z AUTO 00000KT 10SM BKN080 OVC100 09/02 A2996 RMK AO2 SLP150 T00940022 10122 20089 53002
Loading
Personal Weather Stations






























Interactive Weather Map
Tropical Storm Tracking
New forecast layout! Learn more

10-Day Weather Forecast

Advertisements
Track Severe Weather on mobile